Time;durP1;ratioP1;P1;durP2;ratioP2;P2;SDS_P1;SDS_P2;PMS_P1;PMS_P2;Temp;Humidity;BMP_temperature;BMP_pressure;BME280_temperature;BME280_humidity;BME280_pressure;Samples;Min_cycle;Max_cycle;Signal;HPM_P1;HPM_P2
2022/05/16 00:00:46;;;;;;;8.40;7.05;;;;;;;10.75;73.16;94881.63;1680686;85;21142;-50
2022/05/16 00:03:14;;;;;;;11.75;7.03;;;;;;;10.67;73.28;94878.77;1680679;85;20994;-50
2022/05/16 00:05:40;;;;;;;11.73;6.85;;;;;;;10.62;73.44;94876.00;1680586;85;20979;-50
2022/05/16 00:08:09;;;;;;;10.40;6.55;;;;;;;10.61;73.66;94880.56;1680610;85;21030;-50
2022/05/16 00:10:37;;;;;;;10.70;5.87;;;;;;;10.58;73.87;94879.48;1680634;85;21066;-50
2022/05/16 00:13:05;;;;;;;13.50;6.97;;;;;;;10.56;74.18;94879.75;1680664;85;20976;-50
2022/05/16 00:15:34;;;;;;;10.13;6.80;;;;;;;10.51;74.36;94878.33;1680552;85;21329;-51
2022/05/16 00:18:02;;;;;;;9.95;7.37;;;;;;;10.45;74.48;94882.86;1680476;85;21074;-50
2022/05/16 00:20:29;;;;;;;11.20;6.15;;;;;;;10.42;74.54;94871.37;1680887;85;21022;-49
2022/05/16 00:22:56;;;;;;;13.68;6.35;;;;;;;10.41;74.41;94877.30;1680643;85;21010;-49
2022/05/16 00:25:22;;;;;;;10.45;6.37;;;;;;;10.41;74.52;94874.55;1680659;85;21027;-48
2022/05/16 00:27:50;;;;;;;12.13;6.47;;;;;;;10.42;74.25;94871.95;1680554;85;21239;-50
2022/05/16 00:30:18;;;;;;;6.95;5.37;;;;;;;10.42;74.31;94874.70;1680452;85;20954;-50
2022/05/16 00:32:48;;;;;;;8.68;6.35;;;;;;;10.39;74.49;94881.09;1680507;85;21007;-49
2022/05/16 00:35:18;;;;;;;10.78;6.90;;;;;;;10.33;74.88;94874.00;1680710;85;21038;-50
2022/05/16 00:37:44;;;;;;;14.20;7.28;;;;;;;10.28;75.13;94880.07;1680569;85;21010;-50
2022/05/16 00:40:13;;;;;;;13.15;6.67;;;;;;;10.25;75.26;94878.20;1680539;85;21737;-49
2022/05/16 00:42:41;;;;;;;7.75;5.25;;;;;;;10.25;75.20;94869.17;1680327;84;21033;-51
2022/05/16 00:45:11;;;;;;;9.50;5.62;;;;;;;10.23;74.67;94876.50;1680379;85;21081;-51
2022/05/16 00:47:40;;;;;;;13.32;6.12;;;;;;;10.18;74.46;94869.41;1680486;85;21037;-50
2022/05/16 00:50:08;;;;;;;11.15;6.03;;;;;;;10.14;74.58;94876.39;1680441;85;21073;-50
2022/05/16 00:52:39;;;;;;;9.65;5.70;;;;;;;10.14;74.57;94866.02;1680370;85;21904;-50
2022/05/16 00:55:13;;;;;;;8.88;5.78;;;;;;;10.16;74.72;94870.46;1680663;85;20982;-49
2022/05/16 00:57:45;;;;;;;13.15;5.62;;;;;;;10.12;74.93;94874.69;1680654;85;21097;-50
2022/05/16 01:00:29;;;;;;;10.40;6.60;;;;;;;10.08;75.16;94865.79;1680559;85;20991;-50
2022/05/16 01:05:45;;;;;;;8.75;6.05;;;;;;;10.14;75.73;94868.77;1680471;85;21886;-49
2022/05/16 01:08:18;;;;;;;10.05;6.40;;;;;;;10.17;75.44;94858.25;1680421;85;21023;-50
2022/05/16 01:10:46;;;;;;;11.40;5.70;;;;;;;10.17;75.32;94867.88;1680517;85;21026;-52
2022/05/16 01:13:12;;;;;;;9.03;6.50;;;;;;;10.12;75.41;94862.91;1680580;85;21007;-51
2022/05/16 01:15:48;;;;;;;11.33;6.10;;;;;;;10.09;75.59;94866.55;1680618;85;21490;-50
2022/05/16 01:18:18;;;;;;;6.05;4.75;;;;;;;10.06;75.68;94871.55;1680475;85;21177;-49
2022/05/16 01:21:14;;;;;;;7.58;5.47;;;;;;;10.07;75.75;94857.38;1680611;85;20970;-49
2022/05/16 01:23:48;;;;;;;6.60;5.30;;;;;;;10.02;76.15;94864.78;1680620;85;21026;-49
2022/05/16 01:26:18;;;;;;;11.10;5.90;;;;;;;9.96;76.12;94867.14;1680778;85;21506;-49
2022/05/16 01:28:46;;;;;;;9.15;5.95;;;;;;;9.88;76.32;94865.22;1680396;85;20986;-49
2022/05/16 01:31:13;;;;;;;7.87;6.00;;;;;;;9.79;76.47;94865.70;1680461;85;21235;-49
2022/05/16 01:33:39;;;;;;;9.20;5.75;;;;;;;9.72;76.72;94859.03;1680336;85;21495;-49
2022/05/16 01:36:07;;;;;;;6.80;5.65;;;;;;;9.71;76.79;94861.62;1680475;85;21076;-49
2022/05/16 01:38:34;;;;;;;9.80;6.03;;;;;;;9.70;76.74;94857.34;1680393;85;21034;-50
2022/05/16 01:41:04;;;;;;;10.25;7.12;;;;;;;9.67;76.80;94860.38;1655215;85;21071;-50
2022/05/16 01:43:39;;;;;;;14.05;5.83;;;;;;;9.67;76.89;94860.38;1683224;84;21144;-48
2022/05/16 01:46:06;;;;;;;8.40;5.58;;;;;;;9.70;76.91;94851.84;1685761;85;21018;-50
2022/05/16 01:48:34;;;;;;;10.82;5.78;;;;;;;9.72;76.95;94854.33;1685753;85;20990;-49
2022/05/16 01:51:04;;;;;;;8.78;5.45;;;;;;;9.75;76.66;94853.44;1685826;85;21075;-50
2022/05/16 01:53:31;;;;;;;10.08;5.37;;;;;;;9.74;76.53;94855.24;1685881;85;21050;-48
2022/05/16 01:55:57;;;;;;;13.28;5.80;;;;;;;9.71;76.27;94855.53;1685919;85;21470;-50
2022/05/16 01:58:24;;;;;;;9.00;5.65;;;;;;;9.66;76.11;94858.05;1664134;85;21006;-48
2022/05/16 02:00:51;;;;;;;8.48;5.85;;;;;;;9.59;76.28;94852.78;1663045;85;21010;-49
2022/05/16 02:03:18;;;;;;;22.40;7.47;;;;;;;9.56;76.60;94859.91;1685791;85;21113;-49
2022/05/16 02:05:45;;;;;;;13.48;5.80;;;;;;;9.55;77.05;94856.22;1686068;85;21467;-50
2022/05/16 02:08:13;;;;;;;12.07;6.10;;;;;;;9.51;77.18;94850.06;1685813;85;21208;-51
2022/05/16 02:10:41;;;;;;;9.85;5.50;;;;;;;9.46;77.43;94860.22;1685827;85;21396;-50
2022/05/16 02:13:08;;;;;;;8.18;5.87;;;;;;;9.40;77.60;94853.74;1685771;85;21073;-49
2022/05/16 02:15:36;;;;;;;13.20;6.10;;;;;;;9.37;77.77;94859.49;1685853;85;21029;-50
2022/05/16 02:18:04;;;;;;;13.53;6.35;;;;;;;9.33;77.78;94864.32;1685799;85;20959;-48
2022/05/16 02:20:31;;;;;;;14.58;6.50;;;;;;;9.23;77.90;94856.39;1685784;85;21158;-49
2022/05/16 02:25:46;;;;;;;10.95;5.70;;;;;;;9.07;78.32;94858.58;1686198;85;21455;-50
2022/05/16 02:28:16;;;;;;;8.75;5.40;;;;;;;9.08;78.50;94851.13;1685967;85;20994;-51
2022/05/16 02:30:43;;;;;;;10.48;5.78;;;;;;;9.08;78.47;94847.02;1663697;85;21470;-49
2022/05/16 02:33:11;;;;;;;11.30;6.50;;;;;;;9.06;78.80;94856.28;1685804;85;21213;-51
2022/05/16 02:35:38;;;;;;;7.33;6.17;;;;;;;9.02;78.94;94856.96;1685694;85;21038;-49
2022/05/16 02:38:06;;;;;;;7.60;5.30;;;;;;;8.99;78.95;94856.46;1685854;85;21022;-50
2022/05/16 02:40:34;;;;;;;9.13;5.90;;;;;;;8.98;78.95;94859.82;1685847;85;21494;-48
2022/05/16 02:43:01;;;;;;;7.78;5.35;;;;;;;9.01;78.99;94856.80;1664247;85;21611;-48
2022/05/16 02:45:29;;;;;;;9.48;6.42;;;;;;;9.04;78.97;94853.20;1664243;85;22083;-49
2022/05/16 02:47:55;;;;;;;9.53;7.35;;;;;;;9.02;78.78;94867.34;1685621;85;21015;-50
2022/05/16 02:50:23;;;;;;;10.78;7.17;;;;;;;8.97;78.52;94862.98;1685800;85;21006;-49
2022/05/16 02:52:52;;;;;;;13.80;8.13;;;;;;;8.89;78.62;94869.89;1685837;85;21526;-49
2022/05/16 02:55:20;;;;;;;9.13;5.75;;;;;;;8.82;78.70;94865.94;1685721;85;21026;-50
2022/05/16 02:57:48;;;;;;;12.53;6.03;;;;;;;8.77;79.00;94867.84;1685770;85;21164;-49
2022/05/16 03:00:16;;;;;;;8.25;6.12;;;;;;;8.75;79.33;94871.63;1685742;85;20967;-50
2022/05/16 03:02:43;;;;;;;15.70;6.75;;;;;;;8.74;79.77;94872.83;1685829;85;20991;-50
2022/05/16 03:05:11;;;;;;;12.45;6.42;;;;;;;8.74;79.81;94872.05;1664102;85;21074;-50
2022/05/16 03:07:37;;;;;;;12.05;6.58;;;;;;;8.69;79.93;94873.36;1685741;85;21090;-50
2022/05/16 03:10:06;;;;;;;8.95;6.50;;;;;;;8.66;80.12;94870.09;1685836;85;21155;-49
2022/05/16 03:12:34;;;;;;;14.93;6.78;;;;;;;8.62;80.30;94862.56;1685793;85;20989;-49
2022/05/16 03:15:01;;;;;;;11.48;6.65;;;;;;;8.64;80.43;94865.64;1685706;85;21070;-50
2022/05/16 03:17:28;;;;;;;10.80;6.70;;;;;;;8.66;80.55;94870.09;1685741;85;21013;-49
2022/05/16 03:19:56;;;;;;;16.55;8.70;;;;;;;8.71;80.53;94872.33;1685855;85;20986;-49
2022/05/16 03:22:22;;;;;;;12.03;7.58;;;;;;;8.71;80.60;94866.84;1685859;85;21151;-50
2022/05/16 03:24:49;;;;;;;12.82;8.48;;;;;;;8.77;80.90;94871.96;1685774;85;21111;-49
2022/05/16 03:27:16;;;;;;;17.60;7.92;;;;;;;8.84;80.69;94871.77;1687146;85;20998;-49
2022/05/16 03:29:43;;;;;;;16.02;7.45;;;;;;;8.88;80.60;94866.97;1685786;85;21533;-50
2022/05/16 03:32:11;;;;;;;15.32;8.03;;;;;;;8.88;80.46;94868.94;1686011;85;21041;-48
2022/05/16 03:34:38;;;;;;;8.80;6.75;;;;;;;8.89;80.45;94871.25;1685879;85;21763;-50
2022/05/16 03:37:05;;;;;;;15.15;8.05;;;;;;;8.94;80.45;94877.58;1685675;85;20958;-50
2022/05/16 03:42:18;;;;;;;9.28;7.40;;;;;;;9.08;80.11;94867.59;1685851;85;20999;-49
2022/05/16 03:44:45;;;;;;;11.38;6.75;;;;;;;9.20;80.22;94870.96;1685706;84;20986;-49
2022/05/16 03:47:11;;;;;;;8.43;6.15;;;;;;;9.38;79.54;94876.72;1663051;85;21160;-50
2022/05/16 03:49:38;;;;;;;8.45;5.90;;;;;;;9.48;78.95;94877.03;1685836;85;21562;-50
2022/05/16 03:52:06;;;;;;;9.38;6.03;;;;;;;9.55;78.73;94869.95;1685775;85;21006;-49
2022/05/16 03:54:33;;;;;;;9.45;6.60;;;;;;;9.56;78.53;94868.73;1685695;85;21020;-52
2022/05/16 03:57:00;;;;;;;10.82;6.60;;;;;;;9.60;78.29;94874.92;1685924;85;21544;-49
2022/05/16 03:59:27;;;;;;;12.88;7.25;;;;;;;9.64;78.14;94867.34;1685731;85;21517;-49
2022/05/16 04:01:53;;;;;;;11.53;7.42;;;;;;;9.69;77.89;94873.66;1685672;85;20978;-50
2022/05/16 04:04:20;;;;;;;12.50;7.65;;;;;;;9.72;77.80;94873.55;1685817;85;21101;-49
2022/05/16 04:06:47;;;;;;;11.63;7.03;;;;;;;9.81;77.50;94872.91;1685788;85;21073;-51
2022/05/16 04:09:14;;;;;;;12.55;7.42;;;;;;;9.92;77.21;94874.11;1685840;85;21025;-51
2022/05/16 04:11:42;;;;;;;13.08;8.23;;;;;;;9.99;76.87;94884.13;1686083;85;20986;-50
2022/05/16 04:14:09;;;;;;;22.62;7.60;;;;;;;10.01;76.65;94880.33;1685925;85;21095;-52
2022/05/16 04:16:37;;;;;;;13.28;8.58;;;;;;;10.07;76.66;94878.59;1685984;85;20991;-50
2022/05/16 04:19:07;;;;;;;13.45;7.65;;;;;;;10.18;76.58;94876.28;1685867;85;20998;-49
2022/05/16 04:21:36;;;;;;;9.40;6.85;;;;;;;10.31;76.35;94882.55;1686146;85;20989;-50
2022/05/16 04:24:05;;;;;;;10.20;6.97;;;;;;;10.43;75.66;94879.00;1686201;85;21203;-49
2022/05/16 04:26:34;;;;;;;17.55;8.10;;;;;;;10.49;75.23;94877.25;1664332;85;21042;-50
2022/05/16 04:29:02;;;;;;;14.85;7.65;;;;;;;10.54;75.14;94876.68;1685773;85;21078;-55
2022/05/16 04:31:28;;;;;;;15.08;9.40;;;;;;;10.65;74.87;94874.33;1686176;85;21029;-53
2022/05/16 04:33:55;;;;;;;12.85;7.20;;;;;;;10.78;74.58;94877.23;1686046;85;21474;-52
2022/05/16 04:36:22;;;;;;;14.75;7.28;;;;;;;10.88;73.93;94868.60;1685886;85;21258;-50
2022/05/16 04:38:50;;;;;;;11.97;7.25;;;;;;;10.96;73.26;94874.02;1685782;85;21579;-48
2022/05/16 04:44:05;;;;;;;12.53;7.15;;;;;;;11.06;72.85;94875.64;1685883;84;21442;-48
2022/05/16 04:46:32;;;;;;;10.03;6.92;;;;;;;11.21;72.54;94862.88;1686081;85;21525;-49
2022/05/16 04:48:58;;;;;;;12.20;6.85;;;;;;;11.29;71.86;94862.02;1685902;85;21217;-50
2022/05/16 04:51:25;;;;;;;13.32;6.10;;;;;;;11.32;71.37;94857.02;1685903;85;21407;-50
2022/05/16 04:53:52;;;;;;;14.50;6.17;;;;;;;11.32;71.04;94863.28;1685930;85;21525;-50
2022/05/16 04:56:18;;;;;;;11.33;6.67;;;;;;;11.34;71.07;94864.97;1664084;85;21041;-50
2022/05/16 04:58:45;;;;;;;14.13;6.97;;;;;;;11.40;70.72;94860.44;1685955;85;20974;-51
2022/05/16 05:01:13;;;;;;;21.50;7.17;;;;;;;11.46;70.78;94863.36;1685832;85;21270;-50
2022/05/16 05:03:42;;;;;;;12.40;7.00;;;;;;;11.52;70.67;94862.34;1685867;85;21025;-51
2022/05/16 05:06:09;;;;;;;11.95;7.20;;;;;;;11.59;70.47;94862.13;1685937;85;21030;-49
2022/05/16 05:08:35;;;;;;;10.13;6.75;;;;;;;11.66;70.28;94856.34;1685863;85;21502;-50
2022/05/16 05:16:33;;;;;;;16.27;7.80;;;;;;;12.14;70.16;94853.48;1685883;85;21034;-50
2022/05/16 05:19:00;;;;;;;14.60;7.35;;;;;;;12.44;70.25;94853.43;1664328;85;21049;-50
2022/05/16 05:21:27;;;;;;;10.70;6.67;;;;;;;12.70;69.26;94854.73;1664405;85;21002;-51
2022/05/16 05:23:55;;;;;;;13.75;7.92;;;;;;;12.90;68.06;94859.20;1685770;85;20994;-48
2022/05/16 05:26:22;;;;;;;10.35;7.03;;;;;;;13.00;67.13;94846.95;1685868;85;21298;-52
2022/05/16 05:28:49;;;;;;;12.65;6.85;;;;;;;13.03;66.72;94851.55;1685610;85;21077;-49
2022/05/16 05:31:18;;;;;;;11.20;6.62;;;;;;;13.06;66.16;94855.55;1687448;85;20966;-50
2022/05/16 05:33:45;;;;;;;8.85;6.37;;;;;;;13.12;66.04;94855.70;1666259;85;20998;-49
2022/05/16 05:36:12;;;;;;;12.73;6.72;;;;;;;13.17;65.67;94859.23;1687317;85;20990;-50
2022/05/16 05:38:39;;;;;;;13.80;7.08;;;;;;;13.21;65.35;94854.31;1687193;85;21269;-50
2022/05/16 05:41:07;;;;;;;12.88;6.85;;;;;;;13.30;65.20;94855.70;1687414;85;21450;-50
2022/05/16 05:43:33;;;;;;;17.95;7.60;;;;;;;13.38;65.28;94854.14;1687180;84;21031;-52
2022/05/16 05:46:02;;;;;;;10.80;6.53;;;;;;;13.50;65.43;94860.12;1692044;83;21013;-51
2022/05/16 05:48:29;;;;;;;15.13;7.85;;;;;;;13.62;64.93;94861.97;1678775;83;21104;-52
2022/05/16 05:50:56;;;;;;;9.10;6.03;;;;;;;13.70;64.59;94855.65;1683221;83;21641;-52
2022/05/16 05:53:23;;;;;;;11.40;6.17;;;;;;;13.76;64.01;94862.68;1683725;83;21076;-51
2022/05/16 05:55:50;;;;;;;11.88;6.20;;;;;;;13.83;63.64;94856.21;1685581;83;21055;-54
2022/05/16 05:58:17;;;;;;;13.18;6.90;;;;;;;13.95;62.99;94856.65;1689516;83;22113;-50
2022/05/16 06:00:44;;;;;;;16.87;6.50;;;;;;;14.01;62.31;94847.86;1678434;83;21081;-54
2022/05/16 06:03:11;;;;;;;15.30;6.20;;;;;;;14.07;62.30;94849.38;1659927;83;21745;-51
2022/05/16 06:05:39;;;;;;;13.83;6.42;;;;;;;14.16;61.90;94853.55;1676798;83;21083;-57
2022/05/16 06:08:07;;;;;;;11.38;6.78;;;;;;;14.32;62.03;94852.53;1680513;83;21105;-51
2022/05/16 06:10:34;;;;;;;9.90;5.58;;;;;;;14.52;61.76;94852.14;1680486;83;21025;-56
2022/05/16 06:13:02;;;;;;;13.38;5.85;;;;;;;14.75;61.25;94847.23;1676656;83;21057;-51
2022/05/16 06:15:30;;;;;;;16.05;6.60;;;;;;;14.94;60.77;94842.31;1677241;83;21580;-51
2022/05/16 06:17:59;;;;;;;8.13;4.72;;;;;;;15.02;60.22;94841.48;1681423;83;21566;-57
2022/05/16 06:20:25;;;;;;;10.18;5.50;;;;;;;15.16;60.37;94838.00;1676357;83;21029;-50
2022/05/16 06:22:54;;;;;;;8.63;5.60;;;;;;;15.31;59.56;94831.91;1659499;85;21039;-52
2022/05/16 06:25:33;;;;;;;14.58;5.17;;;;;;;15.48;59.54;94826.05;1657904;85;22235;-53
2022/05/16 06:28:05;;;;;;;10.40;5.03;;;;;;;15.65;59.21;94825.73;1682008;83;21250;-51
2022/05/16 06:30:34;;;;;;;12.95;5.22;;;;;;;15.82;58.99;94821.24;1677790;83;21103;-53
2022/05/16 06:33:01;;;;;;;16.32;7.10;;;;;;;15.97;58.16;94819.23;1678348;83;21052;-55
2022/05/16 06:35:28;;;;;;;13.78;5.50;;;;;;;16.15;57.74;94825.18;1684125;83;21096;-57
2022/05/16 06:37:54;;;;;;;17.25;6.92;;;;;;;16.26;57.11;94823.34;1676517;83;21059;-51
2022/05/16 06:40:21;;;;;;;18.80;5.30;;;;;;;16.34;56.69;94817.55;1685605;83;21918;-49
2022/05/16 06:42:48;;;;;;;11.38;5.37;;;;;;;16.44;56.29;94814.80;1684075;83;21117;-52
2022/05/16 06:45:16;;;;;;;11.80;5.40;;;;;;;16.58;55.71;94813.36;1678486;84;21119;-53
2022/05/16 06:47:43;;;;;;;12.60;6.03;;;;;;;16.71;55.38;94814.45;1677014;83;21215;-51
2022/05/16 06:50:10;;;;;;;11.18;6.42;;;;;;;16.84;55.14;94817.63;1673592;84;22221;-51
2022/05/16 06:52:36;;;;;;;10.50;5.70;;;;;;;16.97;54.88;94819.45;1676917;85;21131;-51
2022/05/16 06:55:03;;;;;;;8.23;5.47;;;;;;;17.07;54.27;94815.30;1670351;84;20997;-52
2022/05/16 06:57:30;;;;;;;8.40;5.35;;;;;;;17.14;53.92;94816.25;1678251;84;21049;-50
2022/05/16 06:59:57;;;;;;;9.48;6.42;;;;;;;17.19;54.96;94809.38;1672871;84;21112;-53
2022/05/16 07:02:23;;;;;;;16.42;5.10;;;;;;;17.26;55.15;94809.58;1668248;85;21039;-54
2022/05/16 07:04:51;;;;;;;13.03;5.35;;;;;;;17.30;54.27;94807.34;1673437;84;21872;-50
2022/05/16 07:07:18;;;;;;;14.10;6.62;;;;;;;17.33;53.60;94802.19;1676954;84;21124;-53
2022/05/16 07:09:46;;;;;;;15.63;8.08;;;;;;;17.40;53.09;94801.16;1674522;84;21100;-49
2022/05/16 07:12:13;;;;;;;10.65;4.97;;;;;;;17.49;52.73;94799.60;1678992;84;21063;-53
2022/05/16 07:14:42;;;;;;;10.18;5.17;;;;;;;17.58;51.78;94798.06;1675158;84;21398;-52
2022/05/16 07:17:09;;;;;;;11.55;5.20;;;;;;;17.59;51.40;94796.03;1670212;85;21305;-52
2022/05/16 07:19:36;;;;;;;9.75;4.42;;;;;;;17.62;51.17;94795.83;1643836;84;21039;-52
2022/05/16 07:22:11;;;;;;;11.05;4.55;;;;;;;17.67;51.00;94801.31;1673584;84;20922;-51
2022/05/16 07:24:42;;;;;;;11.48;5.25;;;;;;;17.75;51.01;94799.61;1647678;85;21064;-54
2022/05/16 07:29:55;;;;;;;13.45;6.17;;;;;;;18.05;50.02;94792.55;1648662;84;21498;-55
2022/05/16 07:32:23;;;;;;;8.35;4.05;;;;;;;18.19;49.51;94786.83;1648866;84;21057;-50
2022/05/16 07:34:53;;;;;;;9.53;3.30;;;;;;;18.23;47.99;94788.14;1676374;84;21524;-52
2022/05/16 07:37:21;;;;;;;7.58;3.80;;;;;;;18.24;46.23;94784.09;1674947;84;21089;-52
2022/05/16 07:39:49;;;;;;;9.60;3.98;;;;;;;18.26;46.38;94785.00;1648179;85;21089;-55
2022/05/16 07:42:17;;;;;;;8.55;3.67;;;;;;;18.28;46.57;94784.65;1647498;85;21210;-49
2022/05/16 07:44:44;;;;;;;6.92;3.52;;;;;;;18.33;47.24;94780.38;1649344;83;21513;-52
2022/05/16 07:47:11;;;;;;;7.90;3.37;;;;;;;18.39;48.13;94783.96;1676585;83;21104;-53
2022/05/16 07:49:38;;;;;;;6.30;3.70;;;;;;;18.51;47.59;94785.57;1679943;85;21092;-50
2022/05/16 07:52:07;;;;;;;7.00;3.25;;;;;;;18.55;47.55;94784.08;1677145;83;21056;-51
2022/05/16 07:54:34;;;;;;;9.65;3.80;;;;;;;18.62;47.20;94777.29;1679751;83;21158;-53
2022/05/16 07:57:03;;;;;;;5.75;3.40;;;;;;;18.69;47.55;94777.59;1633889;83;21576;-53
2022/05/16 07:59:29;;;;;;;10.32;3.50;;;;;;;18.82;47.44;94777.89;1646901;85;20961;-54
2022/05/16 08:01:56;;;;;;;6.37;3.02;;;;;;;18.96;46.80;94771.37;1629659;87;21099;-50
2022/05/16 08:04:23;;;;;;;6.67;3.58;;;;;;;19.11;46.40;94776.12;1626837;86;21068;-52
2022/05/16 08:06:49;;;;;;;8.78;3.62;;;;;;;19.20;45.85;94771.73;1626303;86;21117;-52
2022/05/16 08:12:04;;;;;;;7.08;3.30;;;;;;;19.44;45.50;94762.94;1627533;86;21076;-51
2022/05/16 08:14:32;;;;;;;10.72;4.20;;;;;;;19.66;45.86;94758.78;1627634;88;21073;-53
2022/05/16 08:16:59;;;;;;;7.17;4.00;;;;;;;19.86;46.01;94762.13;1634810;86;21072;-54
2022/05/16 08:19:29;;;;;;;8.10;3.10;;;;;;;20.08;45.88;94760.02;1628387;86;48166;-52
2022/05/16 08:21:55;;;;;;;8.80;3.27;;;;;;;20.30;44.37;94760.73;1626953;86;21102;-53
2022/05/16 08:24:22;;;;;;;10.43;4.15;;;;;;;20.48;44.87;94758.19;1628207;86;21056;-52
2022/05/16 08:26:49;;;;;;;6.00;3.27;;;;;;;20.67;44.13;94763.36;1620202;86;22064;-52
2022/05/16 08:29:15;;;;;;;6.50;3.10;;;;;;;20.82;43.25;94758.23;1601886;87;21136;-56
2022/05/16 08:31:42;;;;;;;9.53;3.02;;;;;;;20.91;42.61;94762.82;1620573;85;22029;-51
2022/05/16 08:34:09;;;;;;;8.35;3.12;;;;;;;20.98;42.10;94762.28;1627820;86;21066;-53
2022/05/16 08:42:14;;;;;;;7.10;3.20;;;;;;;21.37;42.52;94758.05;1629629;88;21092;-51
2022/05/16 08:45:05;;;;;;;6.08;3.02;;;;;;;21.56;42.37;94756.78;1598712;87;21142;-55
2022/05/16 08:47:49;;;;;;;7.50;2.87;;;;;;;21.72;42.62;94756.73;1616209;87;21030;-54
2022/05/16 08:50:24;;;;;;;12.60;3.27;;;;;;;21.79;42.33;94748.38;1617568;87;20974;-52
2022/05/16 08:53:02;;;;;;;9.13;3.15;;;;;;;21.88;42.08;94742.48;1631419;87;21009;-55
2022/05/16 08:55:46;;;;;;;8.25;3.30;;;;;;;21.99;42.44;94736.15;1637383;86;21068;-52
2022/05/16 08:58:41;;;;;;;6.67;2.92;;;;;;;22.12;41.68;94738.45;1635907;86;21102;-53
2022/05/16 09:01:19;;;;;;;7.15;2.90;;;;;;;22.25;41.38;94733.00;1635368;87;21052;-52
2022/05/16 09:03:55;;;;;;;15.00;3.70;;;;;;;22.25;41.33;94736.45;1635465;86;21044;-54
2022/05/16 09:06:38;;;;;;;9.10;3.08;;;;;;;22.23;41.94;94738.37;1631278;86;21020;-55
2022/05/16 09:09:14;;;;;;;6.03;3.33;;;;;;;22.19;41.81;94728.09;1625453;86;21150;-54
2022/05/16 09:12:15;;;;;;;8.13;3.05;;;;;;;22.18;41.40;94739.19;1631874;86;21213;-49
2022/05/16 09:14:53;;;;;;;5.67;2.75;;;;;;;22.12;41.90;94737.05;1638810;86;21128;-54
2022/05/16 09:17:40;;;;;;;7.30;2.80;;;;;;;22.25;41.74;94736.45;1635804;85;21054;-55
2022/05/16 09:20:48;;;;;;;6.20;2.67;;;;;;;22.49;41.95;94735.84;1644712;86;21619;-51
2022/05/16 09:23:48;;;;;;;7.80;3.47;;;;;;;22.74;41.94;94731.02;1637365;86;21076;-52
2022/05/16 09:26:35;;;;;;;5.00;2.65;;;;;;;22.97;40.45;94727.44;1641359;86;21294;-57
2022/05/16 09:29:12;;;;;;;10.88;3.37;;;;;;;23.05;38.71;94721.33;1639935;86;21165;-53
2022/05/16 09:31:44;;;;;;;8.10;3.05;;;;;;;22.90;38.53;94719.63;1635798;86;21017;-54
2022/05/16 09:34:11;;;;;;;6.62;4.20;;;;;;;22.74;39.21;94724.00;1632213;86;20953;-52
2022/05/16 09:36:45;;;;;;;7.55;3.92;;;;;;;22.62;39.60;94726.16;1632811;86;21064;-54
2022/05/16 09:39:16;;;;;;;6.35;3.30;;;;;;;22.47;39.90;94722.25;1637837;86;21225;-54
2022/05/16 09:41:58;;;;;;;10.43;3.30;;;;;;;22.35;40.35;94729.98;1637762;86;21072;-51
2022/05/16 09:44:30;;;;;;;8.70;3.35;;;;;;;22.20;40.40;94731.64;1634678;86;21127;-55
2022/05/16 09:47:32;;;;;;;8.30;3.72;;;;;;;22.10;40.22;94727.00;1625276;86;21132;-51
2022/05/16 09:50:24;;;;;;;9.58;5.47;;;;;;;21.99;40.76;94729.80;1657443;83;21108;-52
2022/05/16 09:53:14;;;;;;;8.88;4.20;;;;;;;21.87;41.55;94726.95;1691919;84;21002;-53
2022/05/16 09:55:52;;;;;;;11.05;5.30;;;;;;;21.74;42.04;94723.98;1672699;83;21732;-54
2022/05/16 09:58:28;;;;;;;13.93;7.37;;;;;;;21.61;41.67;94714.75;1668412;85;21502;-57
2022/05/16 10:01:00;;;;;;;8.38;4.50;;;;;;;21.61;42.69;94714.75;1646501;85;21597;-53
2022/05/16 10:03:37;;;;;;;8.73;3.27;;;;;;;21.87;43.93;94704.54;1666889;85;21073;-56
2022/05/16 10:06:08;;;;;;;4.65;2.60;;;;;;;22.27;43.44;94700.99;1678331;84;21186;-52
2022/05/16 10:08:42;;;;;;;6.40;2.90;;;;;;;22.56;42.37;94698.83;1683994;84;21077;-51
2022/05/16 10:11:22;;;;;;;7.17;2.62;;;;;;;22.60;41.98;94704.13;1607327;85;21081;-52
2022/05/16 10:13:49;;;;;;;6.08;3.00;;;;;;;22.58;41.01;94691.27;1670233;85;21044;-52
2022/05/16 10:16:16;;;;;;;7.10;2.90;;;;;;;22.77;42.08;94701.90;1679827;85;21031;-50
2022/05/16 10:18:51;;;;;;;5.25;2.50;;;;;;;22.88;42.13;94701.13;1655060;85;21545;-52
2022/05/16 10:21:36;;;;;;;7.15;2.83;;;;;;;23.04;41.57;94697.36;1654386;85;21048;-51
2022/05/16 10:24:07;;;;;;;9.20;3.00;;;;;;;23.32;41.22;94694.99;1654141;85;21021;-53
2022/05/16 10:26:39;;;;;;;8.08;2.92;;;;;;;23.78;39.84;94688.94;1655073;85;21068;-52
2022/05/16 10:29:14;;;;;;;5.75;2.52;;;;;;;24.29;40.45;94689.80;1669739;84;21014;-51
2022/05/16 10:34:47;;;;;;;4.30;2.50;;;;;;;24.87;36.77;94681.31;1679772;84;21014;-51
2022/05/16 10:37:13;;;;;;;4.70;2.45;;;;;;;24.94;37.13;94682.83;1679574;84;21121;-50
2022/05/16 10:39:44;;;;;;;5.35;2.60;;;;;;;25.08;37.57;94683.59;1691935;84;21600;-52
2022/05/16 10:42:24;;;;;;;7.20;2.67;;;;;;;25.37;36.31;94679.03;1641211;84;21060;-51
2022/05/16 10:45:00;;;;;;;5.85;2.58;;;;;;;25.71;35.44;94681.18;1678803;84;21955;-54
2022/05/16 10:47:53;;;;;;;6.70;2.52;;;;;;;26.00;35.28;94675.15;1680232;84;21814;-53
2022/05/16 10:50:25;;;;;;;11.48;2.62;;;;;;;25.71;34.94;94673.39;1680267;84;21525;-51
2022/05/16 10:52:57;;;;;;;9.38;2.62;;;;;;;25.29;35.66;94677.42;1692270;84;20996;-53
2022/05/16 10:55:26;;;;;;;6.40;2.47;;;;;;;24.85;36.82;94679.70;1618778;87;21138;-54
2022/05/16 10:58:30;;;;;;;5.35;2.42;;;;;;;24.55;37.12;94673.64;1639984;86;21078;-51
2022/05/16 11:01:11;;;;;;;13.10;3.15;;;;;;;24.67;37.94;94677.11;1639088;86;21024;-53
2022/05/16 11:03:53;;;;;;;4.15;2.40;;;;;;;25.20;38.51;94676.45;1627861;86;20981;-53
2022/05/16 11:06:46;;;;;;;6.28;2.35;;;;;;;25.44;35.46;94672.72;1620659;86;21165;-53
2022/05/16 11:09:34;;;;;;;4.90;2.55;;;;;;;25.91;35.37;94669.87;1593562;88;21146;-54
2022/05/16 11:12:09;;;;;;;7.47;2.65;;;;;;;26.24;35.08;94664.92;1624880;86;21960;-53
2022/05/16 11:15:02;;;;;;;6.05;2.52;;;;;;;26.63;36.37;94666.10;1627946;87;21090;-53
2022/05/16 11:17:46;;;;;;;5.20;2.77;;;;;;;26.88;33.85;94665.05;1627134;86;21504;-51
2022/05/16 11:20:37;;;;;;;6.65;2.52;;;;;;;27.09;34.36;94660.08;1623738;86;21109;-53
2022/05/16 11:23:19;;;;;;;5.60;2.45;;;;;;;27.49;34.01;94661.22;1628945;86;21154;-53
2022/05/16 11:26:14;;;;;;;9.53;3.25;;;;;;;28.08;31.46;94657.19;1580218;86;22375;-51
2022/05/16 11:29:20;;;;;;;5.70;2.25;;;;;;;27.87;32.51;94661.47;1673869;85;21576;-52
2022/05/16 11:32:18;;;;;;;9.10;2.80;;;;;;;27.49;32.70;94661.22;1660655;84;21077;-52
2022/05/16 11:35:06;;;;;;;6.10;2.87;;;;;;;26.80;33.16;94657.94;1676282;84;21026;-56
2022/05/16 11:37:50;;;;;;;5.95;2.92;;;;;;;26.54;33.81;94658.15;1679222;85;21031;-52
2022/05/16 11:40:28;;;;;;;9.75;3.77;;;;;;;26.78;35.70;94653.50;1683691;84;21665;-52
2022/05/16 11:43:19;;;;;;;9.63;5.37;;;;;;;27.11;34.22;94644.13;1668436;84;21372;-51
2022/05/16 11:46:18;;;;;;;7.70;3.20;;;;;;;26.93;33.70;94645.13;1682831;84;21106;-53
2022/05/16 11:49:16;;;;;;;9.00;3.70;;;;;;;26.47;33.90;94656.65;1681507;85;21115;-51
2022/05/16 11:52:15;;;;;;;8.83;3.55;;;;;;;25.79;35.08;94652.44;1682038;83;21063;-53
2022/05/16 11:54:51;;;;;;;6.65;3.05;;;;;;;25.54;36.10;94651.88;1679422;83;21156;-52
2022/05/16 12:03:13;;;;;;;6.25;2.70;;;;;;;25.34;35.21;94651.18;1683029;85;21597;-51
2022/05/16 12:05:46;;;;;;;11.25;3.55;;;;;;;24.98;36.58;94645.25;1682610;83;21193;-56
2022/05/16 12:08:20;;;;;;;6.05;2.77;;;;;;;24.75;36.97;94641.38;1680854;83;21122;-56
2022/05/16 12:11:09;;;;;;;;;;;;;;;24.58;36.41;94638.80;1685607;83;21081;-58
2022/05/16 12:13:59;;;;;;;6.15;2.65;;;;;;;24.95;35.90;94638.56;1692582;83;20196;-53
2022/05/16 12:16:42;;;;;;;5.22;2.25;;;;;;;25.47;36.33;94637.81;1674551;83;21871;-56
2022/05/16 12:19:37;;;;;;;7.35;3.37;;;;;;;25.83;34.35;94630.96;1684178;83;21052;-51
2022/05/16 12:22:17;;;;;;;6.60;2.37;;;;;;;25.80;35.07;94629.98;1674690;83;21267;-56
2022/05/16 12:24:58;;;;;;;5.10;3.22;;;;;;;25.90;35.36;94624.66;1683771;83;21565;-56
2022/05/16 12:27:41;;;;;;;4.62;2.25;;;;;;;26.17;34.76;94622.55;1684599;83;21132;-52
2022/05/16 12:30:22;;;;;;;3.90;2.15;;;;;;;26.51;36.05;94616.16;1663516;85;21057;-51